Archival Weather

Norman Y Mineta San Jose Intl

San Jose, California (KSJC)

Report from: Tuesday, February 27, 2024 10:53 PM PST
Current time: Friday, June 14, 2024 4:25 AM PDT

Current weather – Weather history – Daily summaries
Weather forecast

Temperature10.6°C (51.1°F)
Dew point3.3°C (37.9°F)
Winds 3 kts (1.5 m/s, 3.5 mph) South-Southwest (200°)
Visibility10 mi. (16.1 km)
Clouds Sky clear
Altimeter30.09 in.Hg (1019 mB)
Relative humidity61 %
Density altitude-598 ft. (-182 m)
Sea-level pressure101.9 kPa (1019 mB, 30.09 in.Hg)
Remarks Automated weather observing station with precipitation discriminator
Flight conditions Visual Meteorological Conditions
Raw dataKSJC 280653Z 20003KT 10SM CLR 11/03 A3009 RMK AO2 SLP188 T01060033
An error has occurred. This application may no longer respond until reloaded. Reload 🗙